sensor_id;sensor_type;location;lat;lon;timestamp;temperature;humidity
33011;DHT22;19370;48.562;9.196;2022-07-24T00:01:37;21.70;99.90
33011;DHT22;19370;48.562;9.196;2022-07-24T00:04:03;21.60;99.90
33011;DHT22;19370;48.562;9.196;2022-07-24T00:06:31;21.60;99.90
33011;DHT22;19370;48.562;9.196;2022-07-24T00:08:57;21.60;99.90
33011;DHT22;19370;48.562;9.196;2022-07-24T00:11:22;21.60;99.90
33011;DHT22;19370;48.562;9.196;2022-07-24T00:13:48;21.60;99.90
33011;DHT22;19370;48.562;9.196;2022-07-24T00:16:14;21.60;99.90
33011;DHT22;19370;48.562;9.196;2022-07-24T00:18:40;21.60;99.90
33011;DHT22;19370;48.562;9.196;2022-07-24T00:21:06;21.60;99.90
33011;DHT22;19370;48.562;9.196;2022-07-24T00:23:31;21.60;99.90
33011;DHT22;19370;48.562;9.196;2022-07-24T00:25:57;21.60;99.90
33011;DHT22;19370;48.562;9.196;2022-07-24T00:28:24;21.60;99.90
33011;DHT22;19370;48.562;9.196;2022-07-24T00:30:53;21.50;99.90
33011;DHT22;19370;48.562;9.196;2022-07-24T00:33:19;21.40;99.90
33011;DHT22;19370;48.562;9.196;2022-07-24T00:35:45;21.40;99.90
33011;DHT22;19370;48.562;9.196;2022-07-24T00:38:11;21.30;99.90
33011;DHT22;19370;48.562;9.196;2022-07-24T00:40:36;21.30;99.90
33011;DHT22;19370;48.562;9.196;2022-07-24T00:43:03;21.20;99.90
33011;DHT22;19370;48.562;9.196;2022-07-24T00:45:29;21.20;99.90
33011;DHT22;19370;48.562;9.196;2022-07-24T00:47:56;21.10;99.90
33011;DHT22;19370;48.562;9.196;2022-07-24T00:50:21;21.10;99.90
33011;DHT22;19370;48.562;9.196;2022-07-24T00:52:48;21.10;99.90
33011;DHT22;19370;48.562;9.196;2022-07-24T00:55:15;21.00;99.90
33011;DHT22;19370;48.562;9.196;2022-07-24T00:57:41;21.00;99.90
33011;DHT22;19370;48.562;9.196;2022-07-24T01:00:10;20.90;99.90
33011;DHT22;19370;48.562;9.196;2022-07-24T01:02:39;20.90;99.90
33011;DHT22;19370;48.562;9.196;2022-07-24T01:05:07;20.90;99.90
33011;DHT22;19370;48.562;9.196;2022-07-24T01:07:32;20.90;99.90
33011;DHT22;19370;48.562;9.196;2022-07-24T01:10:02;20.90;99.90
33011;DHT22;19370;48.562;9.196;2022-07-24T01:12:28;20.90;99.90
33011;DHT22;19370;48.562;9.196;2022-07-24T01:14:55;20.80;99.90
33011;DHT22;19370;48.562;9.196;2022-07-24T01:17:21;20.80;99.90
33011;DHT22;19370;48.562;9.196;2022-07-24T01:19:46;20.90;99.90
33011;DHT22;19370;48.562;9.196;2022-07-24T01:22:12;20.90;99.90
33011;DHT22;19370;48.562;9.196;2022-07-24T01:24:38;20.80;99.90
33011;DHT22;19370;48.562;9.196;2022-07-24T01:27:04;20.70;99.90
33011;DHT22;19370;48.562;9.196;2022-07-24T01:29:29;20.70;99.90
33011;DHT22;19370;48.562;9.196;2022-07-24T01:31:55;20.60;99.90
33011;DHT22;19370;48.562;9.196;2022-07-24T01:34:20;20.60;99.90
33011;DHT22;19370;48.562;9.196;2022-07-24T01:36:46;20.50;99.90
33011;DHT22;19370;48.562;9.196;2022-07-24T01:39:12;20.50;99.90
33011;DHT22;19370;48.562;9.196;2022-07-24T01:41:37;20.40;99.90
33011;DHT22;19370;48.562;9.196;2022-07-24T01:44:03;20.40;99.90
33011;DHT22;19370;48.562;9.196;2022-07-24T01:46:29;20.40;99.90
33011;DHT22;19370;48.562;9.196;2022-07-24T01:48:55;20.40;99.90
33011;DHT22;19370;48.562;9.196;2022-07-24T01:51:20;20.40;99.90
33011;DHT22;19370;48.562;9.196;2022-07-24T01:53:46;20.30;99.90
33011;DHT22;19370;48.562;9.196;2022-07-24T01:56:12;20.20;99.90
33011;DHT22;19370;48.562;9.196;2022-07-24T01:58:37;20.20;99.90
33011;DHT22;19370;48.562;9.196;2022-07-24T02:01:05;20.10;99.90
33011;DHT22;19370;48.562;9.196;2022-07-24T02:03:31;20.20;99.90
33011;DHT22;19370;48.562;9.196;2022-07-24T02:05:57;20.20;99.90
33011;DHT22;19370;48.562;9.196;2022-07-24T02:08:22;20.20;99.90
33011;DHT22;19370;48.562;9.196;2022-07-24T02:10:48;20.20;99.90
33011;DHT22;19370;48.562;9.196;2022-07-24T02:13:14;20.20;99.90
33011;DHT22;19370;48.562;9.196;2022-07-24T02:15:39;20.20;99.90
33011;DHT22;19370;48.562;9.196;2022-07-24T02:18:05;20.20;99.90
33011;DHT22;19370;48.562;9.196;2022-07-24T02:20:31;20.20;99.90
33011;DHT22;19370;48.562;9.196;2022-07-24T02:22:56;20.20;99.90
33011;DHT22;19370;48.562;9.196;2022-07-24T02:25:22;20.30;99.90
33011;DHT22;19370;48.562;9.196;2022-07-24T02:27:48;20.30;99.90
33011;DHT22;19370;48.562;9.196;2022-07-24T02:30:19;20.30;99.90
33011;DHT22;19370;48.562;9.196;2022-07-24T02:32:45;20.20;99.90
33011;DHT22;19370;48.562;9.196;2022-07-24T02:35:11;20.30;99.90
33011;DHT22;19370;48.562;9.196;2022-07-24T02:37:39;20.30;99.90
33011;DHT22;19370;48.562;9.196;2022-07-24T02:40:06;20.20;99.90
33011;DHT22;19370;48.562;9.196;2022-07-24T02:42:33;20.20;99.90
33011;DHT22;19370;48.562;9.196;2022-07-24T02:44:58;20.20;99.90
33011;DHT22;19370;48.562;9.196;2022-07-24T02:47:24;20.10;99.90
33011;DHT22;19370;48.562;9.196;2022-07-24T02:49:50;20.10;99.90
33011;DHT22;19370;48.562;9.196;2022-07-24T02:52:16;20.10;99.90
33011;DHT22;19370;48.562;9.196;2022-07-24T02:54:42;20.20;99.90
33011;DHT22;19370;48.562;9.196;2022-07-24T02:57:08;20.20;99.90
33011;DHT22;19370;48.562;9.196;2022-07-24T02:59:34;20.10;99.90
33011;DHT22;19370;48.562;9.196;2022-07-24T03:02:02;20.00;99.90
33011;DHT22;19370;48.562;9.196;2022-07-24T03:04:28;20.00;99.90
33011;DHT22;19370;48.562;9.196;2022-07-24T03:06:54;19.90;99.90
33011;DHT22;19370;48.562;9.196;2022-07-24T03:09:19;19.80;99.90
33011;DHT22;19370;48.562;9.196;2022-07-24T03:11:45;19.80;99.90
33011;DHT22;19370;48.562;9.196;2022-07-24T03:14:11;19.80;99.90
33011;DHT22;19370;48.562;9.196;2022-07-24T03:16:37;19.80;99.90
33011;DHT22;19370;48.562;9.196;2022-07-24T03:19:03;19.70;99.90
33011;DHT22;19370;48.562;9.196;2022-07-24T03:21:32;19.70;99.90
33011;DHT22;19370;48.562;9.196;2022-07-24T03:23:57;19.70;99.90
33011;DHT22;19370;48.562;9.196;2022-07-24T03:26:23;19.70;99.90
33011;DHT22;19370;48.562;9.196;2022-07-24T03:28:49;19.70;99.90
33011;DHT22;19370;48.562;9.196;2022-07-24T03:31:14;19.40;99.90
33011;DHT22;19370;48.562;9.196;2022-07-24T03:33:40;19.30;99.90
33011;DHT22;19370;48.562;9.196;2022-07-24T03:36:06;19.30;99.90
33011;DHT22;19370;48.562;9.196;2022-07-24T03:38:32;19.40;99.90
33011;DHT22;19370;48.562;9.196;2022-07-24T03:40:57;19.30;99.90
33011;DHT22;19370;48.562;9.196;2022-07-24T03:43:23;19.20;99.90
33011;DHT22;19370;48.562;9.196;2022-07-24T03:45:49;19.30;99.90
33011;DHT22;19370;48.562;9.196;2022-07-24T03:48:14;19.40;99.90
33011;DHT22;19370;48.562;9.196;2022-07-24T03:50:40;19.40;99.90
33011;DHT22;19370;48.562;9.196;2022-07-24T03:53:06;19.40;99.90
33011;DHT22;19370;48.562;9.196;2022-07-24T03:55:31;19.30;99.90
33011;DHT22;19370;48.562;9.196;2022-07-24T03:57:57;19.40;99.90
33011;DHT22;19370;48.562;9.196;2022-07-24T04:00:23;19.50;99.90
33011;DHT22;19370;48.562;9.196;2022-07-24T04:02:49;19.30;99.90
33011;DHT22;19370;48.562;9.196;2022-07-24T04:05:14;19.40;99.90
33011;DHT22;19370;48.562;9.196;2022-07-24T04:07:40;19.50;99.90
33011;DHT22;19370;48.562;9.196;2022-07-24T04:10:07;19.40;99.90
33011;DHT22;19370;48.562;9.196;2022-07-24T04:12:33;19.40;99.90
33011;DHT22;19370;48.562;9.196;2022-07-24T04:14:59;19.40;99.90
33011;DHT22;19370;48.562;9.196;2022-07-24T04:17:25;19.30;99.90
33011;DHT22;19370;48.562;9.196;2022-07-24T04:19:51;19.30;99.90
33011;DHT22;19370;48.562;9.196;2022-07-24T04:22:17;19.30;99.90
33011;DHT22;19370;48.562;9.196;2022-07-24T04:24:42;19.30;99.90
33011;DHT22;19370;48.562;9.196;2022-07-24T04:27:08;19.30;99.90
33011;DHT22;19370;48.562;9.196;2022-07-24T04:29:34;19.30;99.90
33011;DHT22;19370;48.562;9.196;2022-07-24T04:31:59;19.40;99.90
33011;DHT22;19370;48.562;9.196;2022-07-24T04:34:25;19.30;99.90
33011;DHT22;19370;48.562;9.196;2022-07-24T04:36:51;19.20;99.90
33011;DHT22;19370;48.562;9.196;2022-07-24T04:39:16;19.10;99.90
33011;DHT22;19370;48.562;9.196;2022-07-24T04:41:42;19.00;99.90
33011;DHT22;19370;48.562;9.196;2022-07-24T04:44:08;19.00;99.90
33011;DHT22;19370;48.562;9.196;2022-07-24T04:46:34;19.00;99.90
33011;DHT22;19370;48.562;9.196;2022-07-24T04:48:59;19.10;99.90
33011;DHT22;19370;48.562;9.196;2022-07-24T04:51:25;19.10;99.90
33011;DHT22;19370;48.562;9.196;2022-07-24T04:53:51;19.10;99.90
33011;DHT22;19370;48.562;9.196;2022-07-24T04:56:20;19.00;99.90
33011;DHT22;19370;48.562;9.196;2022-07-24T04:58:47;19.10;99.90
33011;DHT22;19370;48.562;9.196;2022-07-24T05:01:13;19.10;99.90
33011;DHT22;19370;48.562;9.196;2022-07-24T05:03:39;19.10;99.90
33011;DHT22;19370;48.562;9.196;2022-07-24T05:06:05;19.10;99.90
33011;DHT22;19370;48.562;9.196;2022-07-24T05:08:31;19.20;99.90
33011;DHT22;19370;48.562;9.196;2022-07-24T05:10:57;19.30;99.90
33011;DHT22;19370;48.562;9.196;2022-07-24T05:13:22;19.30;99.90
33011;DHT22;19370;48.562;9.196;2022-07-24T05:15:48;19.30;99.90
33011;DHT22;19370;48.562;9.196;2022-07-24T05:18:17;19.30;99.90
33011;DHT22;19370;48.562;9.196;2022-07-24T05:20:42;19.40;99.90
33011;DHT22;19370;48.562;9.196;2022-07-24T05:23:08;19.50;99.90
33011;DHT22;19370;48.562;9.196;2022-07-24T05:25:34;19.40;99.90
33011;DHT22;19370;48.562;9.196;2022-07-24T05:28:00;19.40;99.90
33011;DHT22;19370;48.562;9.196;2022-07-24T05:30:26;19.50;99.90
33011;DHT22;19370;48.562;9.196;2022-07-24T05:32:52;19.50;99.90
33011;DHT22;19370;48.562;9.196;2022-07-24T05:35:17;19.60;99.90
33011;DHT22;19370;48.562;9.196;2022-07-24T05:37:43;19.70;99.90
33011;DHT22;19370;48.562;9.196;2022-07-24T05:40:09;19.70;99.90
33011;DHT22;19370;48.562;9.196;2022-07-24T05:42:35;19.70;99.90
33011;DHT22;19370;48.562;9.196;2022-07-24T05:45:01;19.70;99.90
33011;DHT22;19370;48.562;9.196;2022-07-24T05:47:27;19.80;99.90
33011;DHT22;19370;48.562;9.196;2022-07-24T05:49:52;19.80;99.90
33011;DHT22;19370;48.562;9.196;2022-07-24T05:52:18;19.80;99.90
33011;DHT22;19370;48.562;9.196;2022-07-24T05:54:44;19.80;99.90
33011;DHT22;19370;48.562;9.196;2022-07-24T05:57:10;19.90;99.90
33011;DHT22;19370;48.562;9.196;2022-07-24T05:59:36;20.00;99.90
33011;DHT22;19370;48.562;9.196;2022-07-24T06:02:02;20.20;99.90
33011;DHT22;19370;48.562;9.196;2022-07-24T06:04:30;20.10;99.90
33011;DHT22;19370;48.562;9.196;2022-07-24T06:06:56;20.10;99.90
33011;DHT22;19370;48.562;9.196;2022-07-24T06:09:21;20.10;99.90
33011;DHT22;19370;48.562;9.196;2022-07-24T06:11:47;20.10;99.90
33011;DHT22;19370;48.562;9.196;2022-07-24T06:14:13;20.10;99.90
33011;DHT22;19370;48.562;9.196;2022-07-24T06:16:38;20.20;99.90
33011;DHT22;19370;48.562;9.196;2022-07-24T06:19:04;20.20;99.90
33011;DHT22;19370;48.562;9.196;2022-07-24T06:21:30;20.30;99.90
33011;DHT22;19370;48.562;9.196;2022-07-24T06:23:55;20.40;99.90
33011;DHT22;19370;48.562;9.196;2022-07-24T06:26:21;20.40;99.90
33011;DHT22;19370;48.562;9.196;2022-07-24T06:28:47;20.50;99.90
33011;DHT22;19370;48.562;9.196;2022-07-24T06:31:13;20.50;99.90
33011;DHT22;19370;48.562;9.196;2022-07-24T06:33:38;20.70;99.90
33011;DHT22;19370;48.562;9.196;2022-07-24T06:36:04;20.70;99.90
33011;DHT22;19370;48.562;9.196;2022-07-24T06:38:30;20.80;99.90
33011;DHT22;19370;48.562;9.196;2022-07-24T06:40:56;20.90;99.90
33011;DHT22;19370;48.562;9.196;2022-07-24T06:43:21;21.00;99.90
33011;DHT22;19370;48.562;9.196;2022-07-24T06:45:47;20.90;99.90
33011;DHT22;19370;48.562;9.196;2022-07-24T06:48:13;21.00;99.90
33011;DHT22;19370;48.562;9.196;2022-07-24T06:50:39;21.10;99.90
33011;DHT22;19370;48.562;9.196;2022-07-24T06:53:04;21.00;99.90
33011;DHT22;19370;48.562;9.196;2022-07-24T06:55:30;21.00;99.90
33011;DHT22;19370;48.562;9.196;2022-07-24T06:57:56;21.00;99.90
33011;DHT22;19370;48.562;9.196;2022-07-24T07:00:21;21.20;99.90
33011;DHT22;19370;48.562;9.196;2022-07-24T07:02:47;21.20;99.90
33011;DHT22;19370;48.562;9.196;2022-07-24T07:05:13;21.30;99.90
33011;DHT22;19370;48.562;9.196;2022-07-24T07:07:39;21.40;99.90
33011;DHT22;19370;48.562;9.196;2022-07-24T07:10:05;21.30;99.90
33011;DHT22;19370;48.562;9.196;2022-07-24T07:12:33;21.40;99.90
33011;DHT22;19370;48.562;9.196;2022-07-24T07:14:59;21.50;99.90
33011;DHT22;19370;48.562;9.196;2022-07-24T07:17:25;21.60;99.90
33011;DHT22;19370;48.562;9.196;2022-07-24T07:19:51;21.70;99.90
33011;DHT22;19370;48.562;9.196;2022-07-24T07:22:16;21.80;99.90
33011;DHT22;19370;48.562;9.196;2022-07-24T07:24:42;21.90;99.90
33011;DHT22;19370;48.562;9.196;2022-07-24T07:27:08;21.90;99.90
33011;DHT22;19370;48.562;9.196;2022-07-24T07:29:33;21.90;99.90
33011;DHT22;19370;48.562;9.196;2022-07-24T07:31:59;22.10;99.90
33011;DHT22;19370;48.562;9.196;2022-07-24T07:34:25;22.10;99.90
33011;DHT22;19370;48.562;9.196;2022-07-24T07:36:52;22.20;99.90
33011;DHT22;19370;48.562;9.196;2022-07-24T07:39:18;22.30;99.90
33011;DHT22;19370;48.562;9.196;2022-07-24T07:41:44;22.30;99.90
33011;DHT22;19370;48.562;9.196;2022-07-24T07:44:10;22.50;99.90
33011;DHT22;19370;48.562;9.196;2022-07-24T07:46:35;22.40;99.90
33011;DHT22;19370;48.562;9.196;2022-07-24T07:49:01;22.50;99.90
33011;DHT22;19370;48.562;9.196;2022-07-24T07:51:27;22.70;99.90
33011;DHT22;19370;48.562;9.196;2022-07-24T07:53:52;22.90;99.90
33011;DHT22;19370;48.562;9.196;2022-07-24T07:56:18;23.20;99.90
33011;DHT22;19370;48.562;9.196;2022-07-24T07:58:44;23.30;99.90
33011;DHT22;19370;48.562;9.196;2022-07-24T08:01:10;23.40;99.90
33011;DHT22;19370;48.562;9.196;2022-07-24T08:03:35;23.40;99.90
33011;DHT22;19370;48.562;9.196;2022-07-24T08:06:01;23.50;99.90
33011;DHT22;19370;48.562;9.196;2022-07-24T08:08:27;23.60;99.90
33011;DHT22;19370;48.562;9.196;2022-07-24T08:10:53;23.70;99.90
33011;DHT22;19370;48.562;9.196;2022-07-24T08:13:19;23.90;99.90
33011;DHT22;19370;48.562;9.196;2022-07-24T08:15:45;24.00;99.90
33011;DHT22;19370;48.562;9.196;2022-07-24T08:18:11;24.10;99.90
33011;DHT22;19370;48.562;9.196;2022-07-24T08:20:37;24.30;99.90
33011;DHT22;19370;48.562;9.196;2022-07-24T08:23:03;24.40;99.90
33011;DHT22;19370;48.562;9.196;2022-07-24T08:25:29;24.40;99.90
33011;DHT22;19370;48.562;9.196;2022-07-24T08:27:55;24.50;99.90
33011;DHT22;19370;48.562;9.196;2022-07-24T08:30:21;24.50;99.90
33011;DHT22;19370;48.562;9.196;2022-07-24T08:32:47;24.50;99.90
33011;DHT22;19370;48.562;9.196;2022-07-24T08:35:13;24.50;99.90
33011;DHT22;19370;48.562;9.196;2022-07-24T08:37:41;24.90;99.90
33011;DHT22;19370;48.562;9.196;2022-07-24T08:40:08;25.10;99.90
33011;DHT22;19370;48.562;9.196;2022-07-24T08:42:35;25.10;97.70
33011;DHT22;19370;48.562;9.196;2022-07-24T08:45:01;25.20;98.50
33011;DHT22;19370;48.562;9.196;2022-07-24T08:47:28;25.00;98.50
33011;DHT22;19370;48.562;9.196;2022-07-24T08:49:57;25.20;97.60
33011;DHT22;19370;48.562;9.196;2022-07-24T08:52:23;25.60;98.00
33011;DHT22;19370;48.562;9.196;2022-07-24T08:54:49;26.00;98.80
33011;DHT22;19370;48.562;9.196;2022-07-24T08:57:15;26.00;96.90
33011;DHT22;19370;48.562;9.196;2022-07-24T08:59:41;26.20;96.90
33011;DHT22;19370;48.562;9.196;2022-07-24T09:02:08;26.10;96.30
33011;DHT22;19370;48.562;9.196;2022-07-24T09:04:42;26.00;95.10
33011;DHT22;19370;48.562;9.196;2022-07-24T09:07:16;26.20;94.90
33011;DHT22;19370;48.562;9.196;2022-07-24T09:09:44;26.60;94.70
33011;DHT22;19370;48.562;9.196;2022-07-24T09:12:14;26.70;93.10
33011;DHT22;19370;48.562;9.196;2022-07-24T09:14:45;26.60;93.10
33011;DHT22;19370;48.562;9.196;2022-07-24T09:17:16;26.70;94.10
33011;DHT22;19370;48.562;9.196;2022-07-24T09:19:59;26.80;93.50
33011;DHT22;19370;48.562;9.196;2022-07-24T09:25:14;27.40;93.70
33011;DHT22;19370;48.562;9.196;2022-07-24T09:27:57;27.70;92.00
33011;DHT22;19370;48.562;9.196;2022-07-24T09:33:00;27.70;90.30
33011;DHT22;19370;48.562;9.196;2022-07-24T09:37:57;27.40;89.80
33011;DHT22;19370;48.562;9.196;2022-07-24T09:41:03;27.20;90.00
33011;DHT22;19370;48.562;9.196;2022-07-24T09:43:25;27.40;89.40
33011;DHT22;19370;48.562;9.196;2022-07-24T09:46:11;27.60;87.80
33011;DHT22;19370;48.562;9.196;2022-07-24T09:51:13;28.10;88.60
33011;DHT22;19370;48.562;9.196;2022-07-24T09:53:40;28.40;86.40
33011;DHT22;19370;48.562;9.196;2022-07-24T09:56:11;28.60;86.30
33011;DHT22;19370;48.562;9.196;2022-07-24T09:58:50;28.60;88.30
33011;DHT22;19370;48.562;9.196;2022-07-24T10:01:20;28.70;87.10
33011;DHT22;19370;48.562;9.196;2022-07-24T10:03:48;28.60;88.70
33011;DHT22;19370;48.562;9.196;2022-07-24T10:06:17;28.80;87.10
33011;DHT22;19370;48.562;9.196;2022-07-24T10:08:44;28.90;83.40
33011;DHT22;19370;48.562;9.196;2022-07-24T10:11:11;29.20;84.30
33011;DHT22;19370;48.562;9.196;2022-07-24T10:13:38;29.50;88.20
33011;DHT22;19370;48.562;9.196;2022-07-24T10:21:28;30.20;81.90
33011;DHT22;19370;48.562;9.196;2022-07-24T10:26:46;30.20;78.40
33011;DHT22;19370;48.562;9.196;2022-07-24T10:29:19;30.40;79.70
33011;DHT22;19370;48.562;9.196;2022-07-24T10:31:53;30.70;78.00
33011;DHT22;19370;48.562;9.196;2022-07-24T10:39:47;31.10;73.00
33011;DHT22;19370;48.562;9.196;2022-07-24T10:42:16;30.70;74.80
33011;DHT22;19370;48.562;9.196;2022-07-24T10:44:42;30.80;76.30
33011;DHT22;19370;48.562;9.196;2022-07-24T10:47:11;31.10;75.90
33011;DHT22;19370;48.562;9.196;2022-07-24T10:49:48;31.20;73.50
33011;DHT22;19370;48.562;9.196;2022-07-24T10:52:22;31.60;75.30
33011;DHT22;19370;48.562;9.196;2022-07-24T10:55:25;31.40;68.70
33011;DHT22;19370;48.562;9.196;2022-07-24T10:58:00;31.60;68.80
33011;DHT22;19370;48.562;9.196;2022-07-24T11:00:32;31.80;68.40
33011;DHT22;19370;48.562;9.196;2022-07-24T11:05:31;32.40;65.70
33011;DHT22;19370;48.562;9.196;2022-07-24T11:21:03;30.00;67.20
33011;DHT22;19370;48.562;9.196;2022-07-24T11:23:29;29.50;69.00
33011;DHT22;19370;48.562;9.196;2022-07-24T11:26:47;29.40;68.30
33011;DHT22;19370;48.562;9.196;2022-07-24T11:29:24;29.70;69.30
33011;DHT22;19370;48.562;9.196;2022-07-24T11:34:33;30.00;67.20
33011;DHT22;19370;48.562;9.196;2022-07-24T11:37:00;30.40;66.40
33011;DHT22;19370;48.562;9.196;2022-07-24T11:39:32;31.00;66.50
33011;DHT22;19370;48.562;9.196;2022-07-24T11:42:00;30.90;63.60
33011;DHT22;19370;48.562;9.196;2022-07-24T11:44:32;31.10;63.60
33011;DHT22;19370;48.562;9.196;2022-07-24T11:47:00;31.50;63.80
33011;DHT22;19370;48.562;9.196;2022-07-24T11:49:30;32.00;61.20
33011;DHT22;19370;48.562;9.196;2022-07-24T11:51:56;32.20;60.30
33011;DHT22;19370;48.562;9.196;2022-07-24T11:54:26;32.30;60.30
33011;DHT22;19370;48.562;9.196;2022-07-24T11:56:53;32.60;58.30
33011;DHT22;19370;48.562;9.196;2022-07-24T11:59:28;33.00;59.60
33011;DHT22;19370;48.562;9.196;2022-07-24T12:02:04;33.30;56.80
33011;DHT22;19370;48.562;9.196;2022-07-24T12:04:30;33.60;59.10
33011;DHT22;19370;48.562;9.196;2022-07-24T12:06:56;33.40;57.40
33011;DHT22;19370;48.562;9.196;2022-07-24T12:09:21;33.50;58.70
33011;DHT22;19370;48.562;9.196;2022-07-24T12:11:48;33.90;55.30
33011;DHT22;19370;48.562;9.196;2022-07-24T12:14:20;34.30;57.50
33011;DHT22;19370;48.562;9.196;2022-07-24T12:16:54;34.60;56.20
33011;DHT22;19370;48.562;9.196;2022-07-24T12:19:24;34.20;57.80
33011;DHT22;19370;48.562;9.196;2022-07-24T12:21:52;33.10;54.70
33011;DHT22;19370;48.562;9.196;2022-07-24T12:24:19;32.60;56.00
33011;DHT22;19370;48.562;9.196;2022-07-24T12:26:54;32.70;56.30
33011;DHT22;19370;48.562;9.196;2022-07-24T12:29:22;33.10;61.30
33011;DHT22;19370;48.562;9.196;2022-07-24T12:31:48;33.80;57.00
33011;DHT22;19370;48.562;9.196;2022-07-24T12:34:16;34.00;54.90
33011;DHT22;19370;48.562;9.196;2022-07-24T12:36:42;33.40;54.30
33011;DHT22;19370;48.562;9.196;2022-07-24T12:39:11;32.80;57.10
33011;DHT22;19370;48.562;9.196;2022-07-24T12:41:44;32.80;59.60
33011;DHT22;19370;48.562;9.196;2022-07-24T12:44:10;33.00;56.50
33011;DHT22;19370;48.562;9.196;2022-07-24T12:46:43;33.20;56.10
33011;DHT22;19370;48.562;9.196;2022-07-24T12:49:10;33.40;56.70
33011;DHT22;19370;48.562;9.196;2022-07-24T12:51:50;33.80;57.00
33011;DHT22;19370;48.562;9.196;2022-07-24T12:54:28;34.00;57.80
33011;DHT22;19370;48.562;9.196;2022-07-24T12:57:08;34.00;56.60
33011;DHT22;19370;48.562;9.196;2022-07-24T12:59:35;33.50;55.10
33011;DHT22;19370;48.562;9.196;2022-07-24T13:02:24;32.80;54.00
33011;DHT22;19370;48.562;9.196;2022-07-24T13:04:53;32.80;54.40
33011;DHT22;19370;48.562;9.196;2022-07-24T13:07:20;32.50;58.00
33011;DHT22;19370;48.562;9.196;2022-07-24T13:09:47;32.90;57.50
33011;DHT22;19370;48.562;9.196;2022-07-24T13:12:14;33.50;59.20
33011;DHT22;19370;48.562;9.196;2022-07-24T13:14:40;33.80;57.20
33011;DHT22;19370;48.562;9.196;2022-07-24T13:17:11;34.20;56.70
33011;DHT22;19370;48.562;9.196;2022-07-24T13:19:39;34.10;56.30
33011;DHT22;19370;48.562;9.196;2022-07-24T13:22:06;34.30;56.10
33011;DHT22;19370;48.562;9.196;2022-07-24T13:24:31;34.20;55.30
33011;DHT22;19370;48.562;9.196;2022-07-24T13:27:02;34.00;53.30
33011;DHT22;19370;48.562;9.196;2022-07-24T13:29:28;34.00;53.80
33011;DHT22;19370;48.562;9.196;2022-07-24T13:31:54;34.10;55.30
33011;DHT22;19370;48.562;9.196;2022-07-24T13:34:21;34.30;55.70
33011;DHT22;19370;48.562;9.196;2022-07-24T13:36:47;34.40;54.60
33011;DHT22;19370;48.562;9.196;2022-07-24T13:39:13;34.60;53.10
33011;DHT22;19370;48.562;9.196;2022-07-24T13:41:40;34.80;52.20
33011;DHT22;19370;48.562;9.196;2022-07-24T13:44:06;35.00;52.40
33011;DHT22;19370;48.562;9.196;2022-07-24T13:46:33;35.10;52.30
33011;DHT22;19370;48.562;9.196;2022-07-24T13:49:01;35.40;51.00
33011;DHT22;19370;48.562;9.196;2022-07-24T13:51:27;35.70;51.50
33011;DHT22;19370;48.562;9.196;2022-07-24T13:53:53;35.80;52.40
33011;DHT22;19370;48.562;9.196;2022-07-24T13:56:20;36.00;51.60
33011;DHT22;19370;48.562;9.196;2022-07-24T13:58:48;36.30;49.90
33011;DHT22;19370;48.562;9.196;2022-07-24T14:01:15;36.30;49.10
33011;DHT22;19370;48.562;9.196;2022-07-24T14:03:43;36.40;50.30
33011;DHT22;19370;48.562;9.196;2022-07-24T14:06:09;36.50;50.60
33011;DHT22;19370;48.562;9.196;2022-07-24T14:08:37;36.70;47.10
33011;DHT22;19370;48.562;9.196;2022-07-24T14:11:03;36.90;48.30
33011;DHT22;19370;48.562;9.196;2022-07-24T14:13:29;36.60;47.10
33011;DHT22;19370;48.562;9.196;2022-07-24T14:15:55;36.90;47.80
33011;DHT22;19370;48.562;9.196;2022-07-24T14:18:21;36.80;46.30
33011;DHT22;19370;48.562;9.196;2022-07-24T14:20:47;36.30;48.60
33011;DHT22;19370;48.562;9.196;2022-07-24T14:23:12;36.00;46.90
33011;DHT22;19370;48.562;9.196;2022-07-24T14:25:38;36.20;47.90
33011;DHT22;19370;48.562;9.196;2022-07-24T14:28:04;36.30;47.20
33011;DHT22;19370;48.562;9.196;2022-07-24T14:30:31;36.50;47.70
33011;DHT22;19370;48.562;9.196;2022-07-24T14:32:56;36.40;49.00
33011;DHT22;19370;48.562;9.196;2022-07-24T14:35:22;36.40;46.50
33011;DHT22;19370;48.562;9.196;2022-07-24T14:37:48;36.50;48.60
33011;DHT22;19370;48.562;9.196;2022-07-24T14:40:14;36.20;45.80
33011;DHT22;19370;48.562;9.196;2022-07-24T14:42:40;36.40;48.90
33011;DHT22;19370;48.562;9.196;2022-07-24T14:45:06;36.50;46.10
33011;DHT22;19370;48.562;9.196;2022-07-24T14:47:32;36.40;46.40
33011;DHT22;19370;48.562;9.196;2022-07-24T14:49:58;36.50;47.40
33011;DHT22;19370;48.562;9.196;2022-07-24T14:52:23;36.40;48.70
33011;DHT22;19370;48.562;9.196;2022-07-24T14:54:50;36.60;47.80
33011;DHT22;19370;48.562;9.196;2022-07-24T14:57:16;36.80;47.00
33011;DHT22;19370;48.562;9.196;2022-07-24T14:59:42;36.80;46.90
33011;DHT22;19370;48.562;9.196;2022-07-24T15:02:09;37.00;47.80
33011;DHT22;19370;48.562;9.196;2022-07-24T15:04:35;36.80;47.40
33011;DHT22;19370;48.562;9.196;2022-07-24T15:07:02;36.30;46.40
33011;DHT22;19370;48.562;9.196;2022-07-24T15:09:28;36.00;48.10
33011;DHT22;19370;48.562;9.196;2022-07-24T15:11:54;36.10;49.10
33011;DHT22;19370;48.562;9.196;2022-07-24T15:14:21;36.30;48.40
33011;DHT22;19370;48.562;9.196;2022-07-24T15:16:47;36.30;48.20
33011;DHT22;19370;48.562;9.196;2022-07-24T15:19:19;35.50;48.60
33011;DHT22;19370;48.562;9.196;2022-07-24T15:21:44;34.70;50.00
33011;DHT22;19370;48.562;9.196;2022-07-24T15:24:10;33.90;52.00
33011;DHT22;19370;48.562;9.196;2022-07-24T15:26:38;34.10;51.90
33011;DHT22;19370;48.562;9.196;2022-07-24T15:29:04;34.70;52.20
33011;DHT22;19370;48.562;9.196;2022-07-24T15:31:30;35.50;51.30
33011;DHT22;19370;48.562;9.196;2022-07-24T15:33:56;35.80;49.80
33011;DHT22;19370;48.562;9.196;2022-07-24T15:36:24;36.00;49.50
33011;DHT22;19370;48.562;9.196;2022-07-24T15:38:53;36.10;49.00
33011;DHT22;19370;48.562;9.196;2022-07-24T15:41:19;36.20;48.70
33011;DHT22;19370;48.562;9.196;2022-07-24T15:43:44;36.50;48.20
33011;DHT22;19370;48.562;9.196;2022-07-24T15:46:10;36.70;48.20
33011;DHT22;19370;48.562;9.196;2022-07-24T15:48:36;37.00;44.80
33011;DHT22;19370;48.562;9.196;2022-07-24T15:51:02;37.20;45.60
33011;DHT22;19370;48.562;9.196;2022-07-24T15:53:28;37.40;45.40
33011;DHT22;19370;48.562;9.196;2022-07-24T15:55:55;37.60;45.00
33011;DHT22;19370;48.562;9.196;2022-07-24T15:58:20;38.00;43.60
33011;DHT22;19370;48.562;9.196;2022-07-24T16:00:46;37.80;45.20
33011;DHT22;19370;48.562;9.196;2022-07-24T16:03:12;37.80;44.40
33011;DHT22;19370;48.562;9.196;2022-07-24T16:05:38;37.70;44.30
33011;DHT22;19370;48.562;9.196;2022-07-24T16:08:04;37.90;43.90
33011;DHT22;19370;48.562;9.196;2022-07-24T16:10:30;38.20;44.00
33011;DHT22;19370;48.562;9.196;2022-07-24T16:12:56;38.20;44.60